sensor_id;sensor_type;location;lat;lon;timestamp;P1;durP1;ratioP1;P2;durP2;ratioP2
5742;SDS011;2896;53.500;10.020;2023-06-04T00:02:10;8.93;;;7.83;;
5742;SDS011;2896;53.500;10.020;2023-06-04T00:04:37;8.47;;;7.63;;
5742;SDS011;2896;53.500;10.020;2023-06-04T00:07:04;8.80;;;7.43;;
5742;SDS011;2896;53.500;10.020;2023-06-04T00:09:32;9.63;;;7.03;;
5742;SDS011;2896;53.500;10.020;2023-06-04T00:11:59;7.60;;;6.90;;
5742;SDS011;2896;53.500;10.020;2023-06-04T00:14:26;6.80;;;6.20;;
5742;SDS011;2896;53.500;10.020;2023-06-04T00:16:53;6.93;;;6.30;;
5742;SDS011;2896;53.500;10.020;2023-06-04T00:19:19;7.37;;;6.67;;
5742;SDS011;2896;53.500;10.020;2023-06-04T00:21:46;7.10;;;6.43;;
5742;SDS011;2896;53.500;10.020;2023-06-04T00:24:12;7.90;;;6.43;;
5742;SDS011;2896;53.500;10.020;2023-06-04T00:26:40;7.50;;;6.03;;
5742;SDS011;2896;53.500;10.020;2023-06-04T00:29:07;6.57;;;5.97;;
5742;SDS011;2896;53.500;10.020;2023-06-04T00:31:34;8.17;;;5.83;;
5742;SDS011;2896;53.500;10.020;2023-06-04T00:34:00;6.97;;;5.33;;
5742;SDS011;2896;53.500;10.020;2023-06-04T00:36:27;8.60;;;6.43;;
5742;SDS011;2896;53.500;10.020;2023-06-04T00:38:54;8.13;;;6.50;;
5742;SDS011;2896;53.500;10.020;2023-06-04T00:41:21;7.30;;;6.30;;
5742;SDS011;2896;53.500;10.020;2023-06-04T00:43:49;7.07;;;6.33;;
5742;SDS011;2896;53.500;10.020;2023-06-04T00:46:20;7.80;;;6.17;;
5742;SDS011;2896;53.500;10.020;2023-06-04T00:48:47;6.07;;;5.23;;
5742;SDS011;2896;53.500;10.020;2023-06-04T00:51:14;5.83;;;5.23;;
5742;SDS011;2896;53.500;10.020;2023-06-04T00:53:41;5.73;;;5.23;;
5742;SDS011;2896;53.500;10.020;2023-06-04T00:56:08;5.70;;;5.10;;
5742;SDS011;2896;53.500;10.020;2023-06-04T00:58:37;6.27;;;5.67;;
5742;SDS011;2896;53.500;10.020;2023-06-04T01:01:07;7.13;;;5.27;;
5742;SDS011;2896;53.500;10.020;2023-06-04T01:03:38;6.00;;;5.50;;
5742;SDS011;2896;53.500;10.020;2023-06-04T01:06:10;6.37;;;5.30;;
5742;SDS011;2896;53.500;10.020;2023-06-04T01:08:39;7.20;;;5.87;;
5742;SDS011;2896;53.500;10.020;2023-06-04T01:11:08;8.10;;;6.07;;
5742;SDS011;2896;53.500;10.020;2023-06-04T01:13:35;5.83;;;5.33;;
5742;SDS011;2896;53.500;10.020;2023-06-04T01:16:01;5.37;;;4.97;;
5742;SDS011;2896;53.500;10.020;2023-06-04T01:18:30;5.37;;;4.90;;
5742;SDS011;2896;53.500;10.020;2023-06-04T01:21:02;5.77;;;5.17;;
5742;SDS011;2896;53.500;10.020;2023-06-04T01:23:34;5.87;;;5.27;;
5742;SDS011;2896;53.500;10.020;2023-06-04T01:26:08;5.60;;;5.10;;
5742;SDS011;2896;53.500;10.020;2023-06-04T01:28:36;5.63;;;5.23;;
5742;SDS011;2896;53.500;10.020;2023-06-04T01:31:03;5.87;;;5.27;;
5742;SDS011;2896;53.500;10.020;2023-06-04T01:33:33;5.90;;;5.37;;
5742;SDS011;2896;53.500;10.020;2023-06-04T01:36:00;5.87;;;5.27;;
5742;SDS011;2896;53.500;10.020;2023-06-04T01:38:27;5.37;;;4.97;;
5742;SDS011;2896;53.500;10.020;2023-06-04T01:40:53;4.73;;;4.43;;
5742;SDS011;2896;53.500;10.020;2023-06-04T01:43:23;5.30;;;4.80;;
5742;SDS011;2896;53.500;10.020;2023-06-04T01:45:50;5.70;;;5.20;;
5742;SDS011;2896;53.500;10.020;2023-06-04T01:48:17;6.80;;;6.10;;
5742;SDS011;2896;53.500;10.020;2023-06-04T01:50:45;5.57;;;5.00;;
5742;SDS011;2896;53.500;10.020;2023-06-04T01:53:11;5.10;;;4.70;;
5742;SDS011;2896;53.500;10.020;2023-06-04T01:55:38;6.07;;;4.67;;
5742;SDS011;2896;53.500;10.020;2023-06-04T01:58:05;5.57;;;5.07;;
5742;SDS011;2896;53.500;10.020;2023-06-04T02:00:32;8.03;;;5.80;;
5742;SDS011;2896;53.500;10.020;2023-06-04T02:02:58;9.63;;;4.30;;
5742;SDS011;2896;53.500;10.020;2023-06-04T02:05:25;6.93;;;4.80;;
5742;SDS011;2896;53.500;10.020;2023-06-04T02:07:53;5.23;;;4.63;;
5742;SDS011;2896;53.500;10.020;2023-06-04T02:10:22;5.47;;;4.93;;
5742;SDS011;2896;53.500;10.020;2023-06-04T02:12:52;6.73;;;5.10;;
5742;SDS011;2896;53.500;10.020;2023-06-04T02:15:20;6.50;;;4.90;;
5742;SDS011;2896;53.500;10.020;2023-06-04T02:17:48;8.77;;;4.60;;
5742;SDS011;2896;53.500;10.020;2023-06-04T02:20:15;4.80;;;4.50;;
5742;SDS011;2896;53.500;10.020;2023-06-04T02:22:42;4.50;;;4.17;;
5742;SDS011;2896;53.500;10.020;2023-06-04T02:25:10;5.97;;;4.80;;
5742;SDS011;2896;53.500;10.020;2023-06-04T02:27:37;4.73;;;4.33;;
5742;SDS011;2896;53.500;10.020;2023-06-04T02:30:04;10.47;;;5.73;;
5742;SDS011;2896;53.500;10.020;2023-06-04T02:32:31;6.20;;;4.47;;
5742;SDS011;2896;53.500;10.020;2023-06-04T02:35:01;9.83;;;5.80;;
5742;SDS011;2896;53.500;10.020;2023-06-04T02:37:28;4.10;;;3.90;;
5742;SDS011;2896;53.500;10.020;2023-06-04T02:39:55;4.70;;;4.30;;
5742;SDS011;2896;53.500;10.020;2023-06-04T02:42:23;5.10;;;4.60;;
5742;SDS011;2896;53.500;10.020;2023-06-04T02:44:49;5.90;;;4.20;;
5742;SDS011;2896;53.500;10.020;2023-06-04T02:47:16;4.53;;;4.10;;
5742;SDS011;2896;53.500;10.020;2023-06-04T02:49:44;5.50;;;5.00;;
5742;SDS011;2896;53.500;10.020;2023-06-04T02:52:10;5.63;;;4.10;;
5742;SDS011;2896;53.500;10.020;2023-06-04T02:54:37;4.67;;;4.27;;
5742;SDS011;2896;53.500;10.020;2023-06-04T02:57:04;5.10;;;4.70;;
5742;SDS011;2896;53.500;10.020;2023-06-04T02:59:32;4.30;;;3.93;;
5742;SDS011;2896;53.500;10.020;2023-06-04T03:01:59;4.90;;;4.27;;
5742;SDS011;2896;53.500;10.020;2023-06-04T03:04:26;5.10;;;4.00;;
5742;SDS011;2896;53.500;10.020;2023-06-04T03:06:58;4.73;;;4.20;;
5742;SDS011;2896;53.500;10.020;2023-06-04T03:09:26;8.90;;;3.67;;
5742;SDS011;2896;53.500;10.020;2023-06-04T03:11:53;4.00;;;3.70;;
5742;SDS011;2896;53.500;10.020;2023-06-04T03:14:20;3.87;;;3.63;;
5742;SDS011;2896;53.500;10.020;2023-06-04T03:16:49;4.40;;;4.00;;
5742;SDS011;2896;53.500;10.020;2023-06-04T03:19:17;4.40;;;3.87;;
5742;SDS011;2896;53.500;10.020;2023-06-04T03:21:44;4.17;;;3.77;;
5742;SDS011;2896;53.500;10.020;2023-06-04T03:24:11;5.70;;;4.80;;
5742;SDS011;2896;53.500;10.020;2023-06-04T03:26:38;5.03;;;3.60;;
5742;SDS011;2896;53.500;10.020;2023-06-04T03:29:05;4.20;;;3.80;;
5742;SDS011;2896;53.500;10.020;2023-06-04T03:31:32;4.00;;;3.70;;
5742;SDS011;2896;53.500;10.020;2023-06-04T03:34:00;8.10;;;4.70;;
5742;SDS011;2896;53.500;10.020;2023-06-04T03:36:27;4.40;;;4.00;;
5742;SDS011;2896;53.500;10.020;2023-06-04T03:38:56;5.00;;;4.03;;
5742;SDS011;2896;53.500;10.020;2023-06-04T03:41:23;5.23;;;4.33;;
5742;SDS011;2896;53.500;10.020;2023-06-04T03:43:51;4.90;;;4.50;;
5742;SDS011;2896;53.500;10.020;2023-06-04T03:46:17;6.10;;;4.03;;
5742;SDS011;2896;53.500;10.020;2023-06-04T03:48:44;5.70;;;4.90;;
5742;SDS011;2896;53.500;10.020;2023-06-04T03:51:12;6.17;;;4.10;;
5742;SDS011;2896;53.500;10.020;2023-06-04T03:53:39;4.27;;;3.97;;
5742;SDS011;2896;53.500;10.020;2023-06-04T03:56:05;5.00;;;4.50;;
5742;SDS011;2896;53.500;10.020;2023-06-04T03:58:32;5.37;;;3.90;;
5742;SDS011;2896;53.500;10.020;2023-06-04T04:01:01;5.70;;;4.37;;
5742;SDS011;2896;53.500;10.020;2023-06-04T04:03:29;4.97;;;4.47;;
5742;SDS011;2896;53.500;10.020;2023-06-04T04:05:56;5.93;;;4.47;;
5742;SDS011;2896;53.500;10.020;2023-06-04T04:08:24;5.40;;;4.90;;
5742;SDS011;2896;53.500;10.020;2023-06-04T04:10:56;4.10;;;3.80;;
5742;SDS011;2896;53.500;10.020;2023-06-04T04:13:23;4.73;;;4.23;;
5742;SDS011;2896;53.500;10.020;2023-06-04T04:15:49;5.40;;;4.30;;
5742;SDS011;2896;53.500;10.020;2023-06-04T04:18:17;5.13;;;4.63;;
5742;SDS011;2896;53.500;10.020;2023-06-04T04:20:44;5.77;;;4.77;;
5742;SDS011;2896;53.500;10.020;2023-06-04T04:23:11;6.07;;;4.70;;
5742;SDS011;2896;53.500;10.020;2023-06-04T04:25:40;4.97;;;4.33;;
5742;SDS011;2896;53.500;10.020;2023-06-04T04:28:08;4.90;;;4.50;;
5742;SDS011;2896;53.500;10.020;2023-06-04T04:30:36;8.37;;;4.70;;
5742;SDS011;2896;53.500;10.020;2023-06-04T04:33:02;7.47;;;4.50;;
5742;SDS011;2896;53.500;10.020;2023-06-04T04:35:30;4.70;;;4.23;;
5742;SDS011;2896;53.500;10.020;2023-06-04T04:37:57;9.70;;;4.00;;
5742;SDS011;2896;53.500;10.020;2023-06-04T04:40:24;4.03;;;3.73;;
5742;SDS011;2896;53.500;10.020;2023-06-04T04:42:52;4.17;;;3.77;;
5742;SDS011;2896;53.500;10.020;2023-06-04T04:45:19;5.10;;;4.10;;
5742;SDS011;2896;53.500;10.020;2023-06-04T04:47:45;5.87;;;4.37;;
5742;SDS011;2896;53.500;10.020;2023-06-04T04:50:12;6.33;;;4.07;;
5742;SDS011;2896;53.500;10.020;2023-06-04T04:52:39;4.23;;;3.93;;
5742;SDS011;2896;53.500;10.020;2023-06-04T04:55:06;3.40;;;3.20;;
5742;SDS011;2896;53.500;10.020;2023-06-04T04:57:34;3.80;;;3.50;;
5742;SDS011;2896;53.500;10.020;2023-06-04T05:00:02;4.03;;;3.70;;
5742;SDS011;2896;53.500;10.020;2023-06-04T05:02:30;3.67;;;3.37;;
5742;SDS011;2896;53.500;10.020;2023-06-04T05:04:57;3.57;;;3.10;;
5742;SDS011;2896;53.500;10.020;2023-06-04T05:07:24;3.97;;;3.20;;
5742;SDS011;2896;53.500;10.020;2023-06-04T05:09:51;3.07;;;2.97;;
5742;SDS011;2896;53.500;10.020;2023-06-04T05:12:17;7.97;;;3.20;;
5742;SDS011;2896;53.500;10.020;2023-06-04T05:14:44;6.30;;;3.63;;
5742;SDS011;2896;53.500;10.020;2023-06-04T05:17:13;4.20;;;3.50;;
5742;SDS011;2896;53.500;10.020;2023-06-04T05:19:41;6.63;;;3.00;;
5742;SDS011;2896;53.500;10.020;2023-06-04T05:22:08;5.10;;;3.30;;
5742;SDS011;2896;53.500;10.020;2023-06-04T05:24:34;7.53;;;3.33;;
5742;SDS011;2896;53.500;10.020;2023-06-04T05:27:01;4.63;;;3.10;;
5742;SDS011;2896;53.500;10.020;2023-06-04T05:29:28;8.80;;;3.50;;
5742;SDS011;2896;53.500;10.020;2023-06-04T05:31:55;3.23;;;3.03;;
5742;SDS011;2896;53.500;10.020;2023-06-04T05:34:23;3.37;;;2.50;;
5742;SDS011;2896;53.500;10.020;2023-06-04T05:36:51;8.10;;;2.70;;
5742;SDS011;2896;53.500;10.020;2023-06-04T05:39:18;12.27;;;4.03;;
5742;SDS011;2896;53.500;10.020;2023-06-04T05:41:48;10.63;;;3.60;;
5742;SDS011;2896;53.500;10.020;2023-06-04T05:44:15;6.80;;;3.97;;
5742;SDS011;2896;53.500;10.020;2023-06-04T05:46:42;6.57;;;3.87;;
5742;SDS011;2896;53.500;10.020;2023-06-04T05:49:08;5.53;;;3.30;;
5742;SDS011;2896;53.500;10.020;2023-06-04T05:51:36;7.43;;;3.77;;
5742;SDS011;2896;53.500;10.020;2023-06-04T05:54:03;9.17;;;4.23;;
5742;SDS011;2896;53.500;10.020;2023-06-04T05:56:29;11.13;;;3.60;;
5742;SDS011;2896;53.500;10.020;2023-06-04T05:58:56;7.90;;;3.60;;
5742;SDS011;2896;53.500;10.020;2023-06-04T06:01:23;4.23;;;3.43;;
5742;SDS011;2896;53.500;10.020;2023-06-04T06:03:49;5.63;;;3.90;;
5742;SDS011;2896;53.500;10.020;2023-06-04T06:06:16;5.13;;;3.30;;
5742;SDS011;2896;53.500;10.020;2023-06-04T06:08:44;4.97;;;3.10;;
5742;SDS011;2896;53.500;10.020;2023-06-04T06:11:11;8.83;;;3.80;;
5742;SDS011;2896;53.500;10.020;2023-06-04T06:13:38;4.80;;;3.13;;
5742;SDS011;2896;53.500;10.020;2023-06-04T06:16:05;5.43;;;3.60;;
5742;SDS011;2896;53.500;10.020;2023-06-04T06:18:32;9.03;;;3.43;;
5742;SDS011;2896;53.500;10.020;2023-06-04T06:20:58;11.70;;;3.50;;
5742;SDS011;2896;53.500;10.020;2023-06-04T06:23:25;6.03;;;3.10;;
5742;SDS011;2896;53.500;10.020;2023-06-04T06:25:53;4.10;;;3.07;;
5742;SDS011;2896;53.500;10.020;2023-06-04T06:28:20;4.20;;;2.80;;
5742;SDS011;2896;53.500;10.020;2023-06-04T06:30:47;6.37;;;4.13;;
5742;SDS011;2896;53.500;10.020;2023-06-04T06:33:13;7.97;;;3.47;;
5742;SDS011;2896;53.500;10.020;2023-06-04T06:35:41;7.70;;;3.63;;
5742;SDS011;2896;53.500;10.020;2023-06-04T06:38:11;8.33;;;3.50;;
5742;SDS011;2896;53.500;10.020;2023-06-04T06:40:37;4.40;;;2.87;;
5742;SDS011;2896;53.500;10.020;2023-06-04T06:43:05;8.93;;;3.13;;
5742;SDS011;2896;53.500;10.020;2023-06-04T06:45:32;8.13;;;2.93;;
5742;SDS011;2896;53.500;10.020;2023-06-04T06:47:58;5.33;;;2.97;;
5742;SDS011;2896;53.500;10.020;2023-06-04T06:50:25;3.13;;;2.80;;
5742;SDS011;2896;53.500;10.020;2023-06-04T06:52:52;3.83;;;3.00;;
5742;SDS011;2896;53.500;10.020;2023-06-04T06:55:18;12.23;;;3.60;;
5742;SDS011;2896;53.500;10.020;2023-06-04T06:57:45;6.87;;;2.93;;
5742;SDS011;2896;53.500;10.020;2023-06-04T07:00:14;6.30;;;2.67;;
5742;SDS011;2896;53.500;10.020;2023-06-04T07:02:41;4.47;;;2.80;;
5742;SDS011;2896;53.500;10.020;2023-06-04T07:05:08;7.70;;;3.47;;
5742;SDS011;2896;53.500;10.020;2023-06-04T07:07:35;5.70;;;2.73;;
5742;SDS011;2896;53.500;10.020;2023-06-04T07:10:02;5.13;;;2.30;;
5742;SDS011;2896;53.500;10.020;2023-06-04T07:12:29;5.17;;;2.67;;
5742;SDS011;2896;53.500;10.020;2023-06-04T07:14:56;6.73;;;2.70;;
5742;SDS011;2896;53.500;10.020;2023-06-04T07:17:24;5.33;;;2.77;;
5742;SDS011;2896;53.500;10.020;2023-06-04T07:19:50;3.47;;;2.40;;
5742;SDS011;2896;53.500;10.020;2023-06-04T07:22:17;7.03;;;2.37;;
5742;SDS011;2896;53.500;10.020;2023-06-04T07:24:44;4.90;;;2.10;;
5742;SDS011;2896;53.500;10.020;2023-06-04T07:27:11;5.13;;;2.67;;
5742;SDS011;2896;53.500;10.020;2023-06-04T07:29:38;4.67;;;2.43;;
5742;SDS011;2896;53.500;10.020;2023-06-04T07:32:05;5.13;;;2.17;;
5742;SDS011;2896;53.500;10.020;2023-06-04T07:34:33;7.20;;;3.07;;
5742;SDS011;2896;53.500;10.020;2023-06-04T07:37:02;5.70;;;3.67;;
5742;SDS011;2896;53.500;10.020;2023-06-04T07:39:28;3.90;;;3.50;;
5742;SDS011;2896;53.500;10.020;2023-06-04T07:41:55;3.70;;;2.30;;
5742;SDS011;2896;53.500;10.020;2023-06-04T07:44:22;6.83;;;3.40;;
5742;SDS011;2896;53.500;10.020;2023-06-04T07:46:48;7.60;;;2.50;;
5742;SDS011;2896;53.500;10.020;2023-06-04T07:49:15;4.47;;;2.50;;
5742;SDS011;2896;53.500;10.020;2023-06-04T07:51:43;6.83;;;2.57;;
5742;SDS011;2896;53.500;10.020;2023-06-04T07:54:11;6.10;;;2.47;;
5742;SDS011;2896;53.500;10.020;2023-06-04T07:56:39;3.13;;;2.37;;
5742;SDS011;2896;53.500;10.020;2023-06-04T07:59:05;5.90;;;2.37;;
5742;SDS011;2896;53.500;10.020;2023-06-04T08:01:32;5.03;;;2.50;;
5742;SDS011;2896;53.500;10.020;2023-06-04T08:03:59;6.60;;;3.00;;
5742;SDS011;2896;53.500;10.020;2023-06-04T08:06:26;9.43;;;3.00;;
5742;SDS011;2896;53.500;10.020;2023-06-04T08:08:54;5.70;;;2.53;;
5742;SDS011;2896;53.500;10.020;2023-06-04T08:11:20;4.63;;;3.23;;
5742;SDS011;2896;53.500;10.020;2023-06-04T08:13:49;5.33;;;2.43;;
5742;SDS011;2896;53.500;10.020;2023-06-04T08:16:16;6.83;;;2.27;;
5742;SDS011;2896;53.500;10.020;2023-06-04T08:18:42;4.37;;;2.37;;
5742;SDS011;2896;53.500;10.020;2023-06-04T08:21:09;7.23;;;4.00;;
5742;SDS011;2896;53.500;10.020;2023-06-04T08:23:37;4.53;;;2.30;;
5742;SDS011;2896;53.500;10.020;2023-06-04T08:26:05;9.80;;;3.20;;
5742;SDS011;2896;53.500;10.020;2023-06-04T08:28:32;2.50;;;2.10;;
5742;SDS011;2896;53.500;10.020;2023-06-04T08:30:59;9.40;;;3.00;;
5742;SDS011;2896;53.500;10.020;2023-06-04T08:33:26;10.30;;;3.33;;
5742;SDS011;2896;53.500;10.020;2023-06-04T08:35:52;6.30;;;2.87;;
5742;SDS011;2896;53.500;10.020;2023-06-04T08:38:19;7.17;;;2.80;;
5742;SDS011;2896;53.500;10.020;2023-06-04T08:40:46;4.30;;;2.87;;
5742;SDS011;2896;53.500;10.020;2023-06-04T08:43:19;6.93;;;2.70;;
5742;SDS011;2896;53.500;10.020;2023-06-04T08:45:47;2.60;;;2.00;;
5742;SDS011;2896;53.500;10.020;2023-06-04T08:48:16;5.33;;;2.43;;
5742;SDS011;2896;53.500;10.020;2023-06-04T08:50:47;6.83;;;2.73;;
5742;SDS011;2896;53.500;10.020;2023-06-04T08:53:15;4.60;;;2.57;;
5742;SDS011;2896;53.500;10.020;2023-06-04T08:55:42;3.93;;;2.60;;
5742;SDS011;2896;53.500;10.020;2023-06-04T08:58:09;4.37;;;2.80;;
5742;SDS011;2896;53.500;10.020;2023-06-04T09:00:39;3.27;;;2.20;;
5742;SDS011;2896;53.500;10.020;2023-06-04T09:03:05;2.17;;;2.00;;
5742;SDS011;2896;53.500;10.020;2023-06-04T09:05:32;5.93;;;2.20;;
5742;SDS011;2896;53.500;10.020;2023-06-04T09:08:01;4.57;;;2.23;;
5742;SDS011;2896;53.500;10.020;2023-06-04T09:10:30;6.93;;;2.33;;
5742;SDS011;2896;53.500;10.020;2023-06-04T09:13:01;2.47;;;2.27;;
5742;SDS011;2896;53.500;10.020;2023-06-04T09:15:28;4.57;;;2.00;;
5742;SDS011;2896;53.500;10.020;2023-06-04T09:17:56;3.07;;;1.97;;
5742;SDS011;2896;53.500;10.020;2023-06-04T09:20:23;3.37;;;2.17;;
5742;SDS011;2896;53.500;10.020;2023-06-04T09:22:51;3.30;;;2.67;;
5742;SDS011;2896;53.500;10.020;2023-06-04T09:25:21;6.10;;;3.30;;
5742;SDS011;2896;53.500;10.020;2023-06-04T09:27:50;2.03;;;1.80;;
5742;SDS011;2896;53.500;10.020;2023-06-04T09:30:17;7.63;;;1.83;;
5742;SDS011;2896;53.500;10.020;2023-06-04T09:32:43;2.10;;;1.40;;
5742;SDS011;2896;53.500;10.020;2023-06-04T09:35:12;4.00;;;1.90;;
5742;SDS011;2896;53.500;10.020;2023-06-04T09:37:40;3.03;;;1.50;;
5742;SDS011;2896;53.500;10.020;2023-06-04T09:40:08;1.70;;;1.60;;
5742;SDS011;2896;53.500;10.020;2023-06-04T09:42:42;3.30;;;1.70;;
5742;SDS011;2896;53.500;10.020;2023-06-04T09:45:10;6.30;;;2.33;;
5742;SDS011;2896;53.500;10.020;2023-06-04T09:47:41;2.80;;;1.97;;
5742;SDS011;2896;53.500;10.020;2023-06-04T09:50:08;3.20;;;1.90;;
5742;SDS011;2896;53.500;10.020;2023-06-04T09:52:38;3.40;;;2.17;;
5742;SDS011;2896;53.500;10.020;2023-06-04T09:55:14;2.37;;;2.00;;
5742;SDS011;2896;53.500;10.020;2023-06-04T09:57:44;2.50;;;1.77;;
5742;SDS011;2896;53.500;10.020;2023-06-04T10:00:12;7.07;;;2.00;;
5742;SDS011;2896;53.500;10.020;2023-06-04T10:02:42;1.70;;;1.60;;
5742;SDS011;2896;53.500;10.020;2023-06-04T10:05:09;3.53;;;2.03;;
5742;SDS011;2896;53.500;10.020;2023-06-04T10:07:39;10.57;;;2.30;;
5742;SDS011;2896;53.500;10.020;2023-06-04T10:10:07;1.60;;;1.50;;
5742;SDS011;2896;53.500;10.020;2023-06-04T10:12:37;2.60;;;2.00;;
5742;SDS011;2896;53.500;10.020;2023-06-04T10:15:05;2.53;;;1.90;;
5742;SDS011;2896;53.500;10.020;2023-06-04T10:17:36;4.80;;;1.90;;
5742;SDS011;2896;53.500;10.020;2023-06-04T10:20:04;3.00;;;1.77;;
5742;SDS011;2896;53.500;10.020;2023-06-04T10:22:35;2.97;;;2.03;;
5742;SDS011;2896;53.500;10.020;2023-06-04T10:25:02;5.03;;;1.93;;
5742;SDS011;2896;53.500;10.020;2023-06-04T10:27:29;2.40;;;1.60;;
5742;SDS011;2896;53.500;10.020;2023-06-04T10:29:57;1.83;;;1.73;;
5742;SDS011;2896;53.500;10.020;2023-06-04T10:32:26;2.10;;;1.63;;
5742;SDS011;2896;53.500;10.020;2023-06-04T10:34:53;3.43;;;1.83;;
5742;SDS011;2896;53.500;10.020;2023-06-04T10:37:22;4.40;;;1.67;;
5742;SDS011;2896;53.500;10.020;2023-06-04T10:39:52;7.03;;;1.70;;
5742;SDS011;2896;53.500;10.020;2023-06-04T10:42:19;4.27;;;1.67;;
5742;SDS011;2896;53.500;10.020;2023-06-04T10:44:47;1.37;;;1.27;;
5742;SDS011;2896;53.500;10.020;2023-06-04T10:47:18;3.10;;;1.57;;
5742;SDS011;2896;53.500;10.020;2023-06-04T10:49:45;5.47;;;1.53;;
5742;SDS011;2896;53.500;10.020;2023-06-04T10:52:12;1.60;;;1.50;;
5742;SDS011;2896;53.500;10.020;2023-06-04T10:54:39;1.87;;;1.73;;
5742;SDS011;2896;53.500;10.020;2023-06-04T10:57:11;2.27;;;1.77;;
5742;SDS011;2896;53.500;10.020;2023-06-04T10:59:39;2.10;;;1.80;;
5742;SDS011;2896;53.500;10.020;2023-06-04T11:02:06;4.73;;;1.47;;
5742;SDS011;2896;53.500;10.020;2023-06-04T11:04:33;4.80;;;2.37;;
5742;SDS011;2896;53.500;10.020;2023-06-04T11:07:02;1.90;;;1.80;;
5742;SDS011;2896;53.500;10.020;2023-06-04T11:09:29;2.10;;;1.60;;
5742;SDS011;2896;53.500;10.020;2023-06-04T11:11:56;3.27;;;2.20;;
5742;SDS011;2896;53.500;10.020;2023-06-04T11:14:25;5.03;;;1.83;;
5742;SDS011;2896;53.500;10.020;2023-06-04T11:16:51;4.33;;;3.93;;
5742;SDS011;2896;53.500;10.020;2023-06-04T11:19:18;3.33;;;3.00;;
5742;SDS011;2896;53.500;10.020;2023-06-04T11:21:45;1.60;;;1.57;;
5742;SDS011;2896;53.500;10.020;2023-06-04T11:24:12;6.20;;;1.70;;
5742;SDS011;2896;53.500;10.020;2023-06-04T11:26:40;5.53;;;1.73;;
5742;SDS011;2896;53.500;10.020;2023-06-04T11:29:07;3.90;;;1.90;;
5742;SDS011;2896;53.500;10.020;2023-06-04T11:31:41;15.13;;;11.43;;
5742;SDS011;2896;53.500;10.020;2023-06-04T11:34:09;2.60;;;1.90;;
5742;SDS011;2896;53.500;10.020;2023-06-04T11:36:37;6.47;;;5.40;;
5742;SDS011;2896;53.500;10.020;2023-06-04T11:39:04;3.80;;;2.27;;
5742;SDS011;2896;53.500;10.020;2023-06-04T11:41:31;1.87;;;1.70;;
5742;SDS011;2896;53.500;10.020;2023-06-04T11:44:01;2.00;;;1.63;;
5742;SDS011;2896;53.500;10.020;2023-06-04T11:46:29;5.07;;;1.90;;
5742;SDS011;2896;53.500;10.020;2023-06-04T11:48:57;2.50;;;2.30;;
5742;SDS011;2896;53.500;10.020;2023-06-04T11:51:24;11.83;;;6.37;;
5742;SDS011;2896;53.500;10.020;2023-06-04T11:53:52;2.53;;;2.33;;
5742;SDS011;2896;53.500;10.020;2023-06-04T11:56:20;1.77;;;1.77;;
5742;SDS011;2896;53.500;10.020;2023-06-04T11:58:46;8.93;;;2.90;;
5742;SDS011;2896;53.500;10.020;2023-06-04T12:01:13;2.10;;;1.80;;
5742;SDS011;2896;53.500;10.020;2023-06-04T12:03:40;6.57;;;2.27;;
5742;SDS011;2896;53.500;10.020;2023-06-04T12:06:10;2.80;;;2.00;;
5742;SDS011;2896;53.500;10.020;2023-06-04T12:08:45;2.07;;;1.93;;
5742;SDS011;2896;53.500;10.020;2023-06-04T12:11:24;5.40;;;1.70;;
5742;SDS011;2896;53.500;10.020;2023-06-04T12:13:52;3.90;;;1.80;;
5742;SDS011;2896;53.500;10.020;2023-06-04T12:16:20;2.33;;;2.20;;
5742;SDS011;2896;53.500;10.020;2023-06-04T12:18:47;2.90;;;2.50;;
5742;SDS011;2896;53.500;10.020;2023-06-04T12:21:20;2.10;;;1.90;;
5742;SDS011;2896;53.500;10.020;2023-06-04T12:23:51;2.20;;;2.07;;
5742;SDS011;2896;53.500;10.020;2023-06-04T12:26:22;3.90;;;1.73;;
5742;SDS011;2896;53.500;10.020;2023-06-04T12:29:00;3.00;;;1.83;;
5742;SDS011;2896;53.500;10.020;2023-06-04T12:31:27;3.00;;;1.97;;
5742;SDS011;2896;53.500;10.020;2023-06-04T12:33:56;3.13;;;2.07;;
5742;SDS011;2896;53.500;10.020;2023-06-04T12:36:28;8.77;;;1.87;;
5742;SDS011;2896;53.500;10.020;2023-06-04T12:38:57;4.00;;;2.23;;
5742;SDS011;2896;53.500;10.020;2023-06-04T12:41:25;2.27;;;2.00;;
5742;SDS011;2896;53.500;10.020;2023-06-04T12:43:51;5.40;;;1.87;;
5742;SDS011;2896;53.500;10.020;2023-06-04T12:46:18;2.10;;;1.90;;
5742;SDS011;2896;53.500;10.020;2023-06-04T12:48:45;2.00;;;1.90;;
5742;SDS011;2896;53.500;10.020;2023-06-04T12:51:11;2.83;;;1.57;;
5742;SDS011;2896;53.500;10.020;2023-06-04T12:53:39;3.53;;;2.03;;
5742;SDS011;2896;53.500;10.020;2023-06-04T12:56:06;2.30;;;1.90;;
5742;SDS011;2896;53.500;10.020;2023-06-04T12:58:33;1.87;;;1.77;;
5742;SDS011;2896;53.500;10.020;2023-06-04T13:01:00;3.53;;;1.80;;
5742;SDS011;2896;53.500;10.020;2023-06-04T13:03:27;3.73;;;2.20;;
5742;SDS011;2896;53.500;10.020;2023-06-04T13:05:55;2.17;;;1.93;;
5742;SDS011;2896;53.500;10.020;2023-06-04T13:08:22;1.77;;;1.67;;
5742;SDS011;2896;53.500;10.020;2023-06-04T13:10:51;2.17;;;2.07;;
5742;SDS011;2896;53.500;10.020;2023-06-04T13:13:18;5.23;;;2.10;;
5742;SDS011;2896;53.500;10.020;2023-06-04T13:15:44;4.17;;;2.27;;
5742;SDS011;2896;53.500;10.020;2023-06-04T13:18:11;2.33;;;2.13;;
5742;SDS011;2896;53.500;10.020;2023-06-04T13:20:39;4.23;;;2.20;;
5742;SDS011;2896;53.500;10.020;2023-06-04T13:23:06;4.93;;;2.27;;
5742;SDS011;2896;53.500;10.020;2023-06-04T13:25:33;8.73;;;2.10;;
5742;SDS011;2896;53.500;10.020;2023-06-04T13:28:02;4.47;;;2.27;;
5742;SDS011;2896;53.500;10.020;2023-06-04T13:30:29;4.53;;;2.07;;
5742;SDS011;2896;53.500;10.020;2023-06-04T13:32:57;2.67;;;1.87;;
5742;SDS011;2896;53.500;10.020;2023-06-04T13:35:24;2.97;;;1.87;;
5742;SDS011;2896;53.500;10.020;2023-06-04T13:37:50;5.10;;;2.00;;
5742;SDS011;2896;53.500;10.020;2023-06-04T13:40:17;4.73;;;2.13;;
5742;SDS011;2896;53.500;10.020;2023-06-04T13:42:44;3.57;;;1.70;;
5742;SDS011;2896;53.500;10.020;2023-06-04T13:45:13;4.00;;;1.87;;
5742;SDS011;2896;53.500;10.020;2023-06-04T13:47:41;3.57;;;1.73;;
5742;SDS011;2896;53.500;10.020;2023-06-04T13:50:09;1.83;;;1.70;;
5742;SDS011;2896;53.500;10.020;2023-06-04T13:52:36;1.77;;;1.60;;
5742;SDS011;2896;53.500;10.020;2023-06-04T13:55:03;5.17;;;1.70;;
5742;SDS011;2896;53.500;10.020;2023-06-04T13:57:30;3.07;;;1.87;;
5742;SDS011;2896;53.500;10.020;2023-06-04T13:59:57;3.17;;;2.00;;
5742;SDS011;2896;53.500;10.020;2023-06-04T14:02:24;2.20;;;2.03;;
5742;SDS011;2896;53.500;10.020;2023-06-04T14:04:52;4.27;;;2.13;;
5742;SDS011;2896;53.500;10.020;2023-06-04T14:07:19;4.63;;;1.50;;
5742;SDS011;2896;53.500;10.020;2023-06-04T14:09:46;2.03;;;1.93;;
5742;SDS011;2896;53.500;10.020;2023-06-04T14:12:13;2.53;;;1.80;;
5742;SDS011;2896;53.500;10.020;2023-06-04T14:14:43;1.47;;;1.47;;
5742;SDS011;2896;53.500;10.020;2023-06-04T14:17:09;1.90;;;1.80;;
5742;SDS011;2896;53.500;10.020;2023-06-04T14:19:37;2.50;;;1.87;;
5742;SDS011;2896;53.500;10.020;2023-06-04T14:22:05;3.37;;;2.00;;
5742;SDS011;2896;53.500;10.020;2023-06-04T14:24:32;1.97;;;1.87;;
5742;SDS011;2896;53.500;10.020;2023-06-04T14:26:59;2.30;;;1.73;;
5742;SDS011;2896;53.500;10.020;2023-06-04T14:29:25;2.23;;;2.13;;
5742;SDS011;2896;53.500;10.020;2023-06-04T14:31:52;4.10;;;1.83;;
5742;SDS011;2896;53.500;10.020;2023-06-04T14:34:19;3.80;;;2.10;;
5742;SDS011;2896;53.500;10.020;2023-06-04T14:36:47;1.40;;;1.40;;
5742;SDS011;2896;53.500;10.020;2023-06-04T14:39:13;4.20;;;2.00;;
5742;SDS011;2896;53.500;10.020;2023-06-04T14:41:40;2.17;;;2.03;;
5742;SDS011;2896;53.500;10.020;2023-06-04T14:44:07;2.10;;;2.00;;
5742;SDS011;2896;53.500;10.020;2023-06-04T14:46:33;2.63;;;2.40;;
5742;SDS011;2896;53.500;10.020;2023-06-04T14:49:00;2.03;;;1.90;;
5742;SDS011;2896;53.500;10.020;2023-06-04T14:51:27;2.03;;;1.83;;
5742;SDS011;2896;53.500;10.020;2023-06-04T14:53:55;1.90;;;1.80;;
5742;SDS011;2896;53.500;10.020;2023-06-04T14:56:21;5.70;;;2.20;;
5742;SDS011;2896;53.500;10.020;2023-06-04T14:58:48;2.33;;;1.97;;
5742;SDS011;2896;53.500;10.020;2023-06-04T15:01:15;5.13;;;2.07;;
5742;SDS011;2896;53.500;10.020;2023-06-04T15:03:42;2.20;;;2.10;;